Time;durP1;ratioP1;P1;durP2;ratioP2;P2;SDS_P1;SDS_P2;PMS_P1;PMS_P2;Temp;Humidity;BMP_temperature;BMP_pressure;BME280_temperature;BME280_humidity;BME280_pressure;Samples;Min_cycle;Max_cycle;Signal;HPM_P1;HPM_P2
2023/11/29 00:00:14;;;;;;;3.38;3.08;;;;;;;;;;1033826;28;20033;-70
2023/11/29 00:00:45;;;;;;;1.00;1.00;;;;;;;;;;1033628;28;20025;-70
2023/11/29 00:01:15;;;;;;;5.40;3.33;;;;;;;;;;1034217;28;20041;-70
2023/11/29 00:01:45;;;;;;;0.47;0.47;;;;;;;;;;1033778;28;20041;-70
2023/11/29 00:02:16;;;;;;;6.78;3.53;;;;;;;;;;1034035;28;20025;-70
2023/11/29 00:02:46;;;;;;;4.63;2.42;;;;;;;;;;1033678;28;20030;-70
2023/11/29 00:03:17;;;;;;;5.60;3.15;;;;;;;;;;1034102;28;20022;-70
2023/11/29 00:03:47;;;;;;;3.08;2.67;;;;;;;;;;1033538;28;20030;-70
2023/11/29 00:04:18;;;;;;;0.98;0.98;;;;;;;;;;1034196;28;20060;-70
2023/11/29 00:04:48;;;;;;;4.78;2.55;;;;;;;;;;1033511;28;20056;-70
2023/11/29 00:05:19;;;;;;;1.17;1.15;;;;;;;;;;1033956;28;20021;-70
2023/11/29 00:05:49;;;;;;;2.03;1.92;;;;;;;;;;1033814;28;20401;-70
2023/11/29 00:06:20;;;;;;;0.65;0.65;;;;;;;;;;1033972;28;20108;-70
2023/11/29 00:06:50;;;;;;;2.00;1.38;;;;;;;;;;1033282;28;20060;-70
2023/11/29 00:07:20;;;;;;;2.90;2.08;;;;;;;;;;1033895;28;20105;-70
2023/11/29 00:07:51;;;;;;;4.95;1.15;;;;;;;;;;1035245;28;20033;-70
2023/11/29 00:08:21;;;;;;;10.52;2.15;;;;;;;;;;1033480;28;20033;-70
2023/11/29 00:08:56;;;;;;;3.28;2.03;;;;;;;;;;1033427;28;20072;-70
2023/11/29 00:09:26;;;;;;;0.47;0.47;;;;;;;;;;1033423;28;20085;-70
2023/11/29 00:09:57;;;;;;;2.25;2.05;;;;;;;;;;1037198;28;20062;-70
2023/11/29 00:10:27;;;;;;;2.95;2.63;;;;;;;;;;1037437;28;20087;-70
2023/11/29 00:10:58;;;;;;;3.70;3.35;;;;;;;;;;1037688;28;20109;-70
2023/11/29 00:11:28;;;;;;;3.15;1.38;;;;;;;;;;1037520;28;20037;-70
2023/11/29 00:11:59;;;;;;;1.13;1.00;;;;;;;;;;1037614;28;20116;-70
2023/11/29 00:12:29;;;;;;;2.70;2.35;;;;;;;;;;1033720;28;20502;-70
2023/11/29 00:12:59;;;;;;;2.88;2.40;;;;;;;;;;1034009;28;20014;-70
2023/11/29 00:13:30;;;;;;;2.03;1.75;;;;;;;;;;1033545;28;20033;-70
2023/11/29 00:14:00;;;;;;;4.03;3.38;;;;;;;;;;1033487;28;20014;-70
2023/11/29 00:14:32;;;;;;;4.90;1.33;;;;;;;;;;1033567;28;20026;-70
2023/11/29 00:15:04;;;;;;;1.52;1.30;;;;;;;;;;1033563;28;20489;-70
2023/11/29 00:15:34;;;;;;;0.80;0.80;;;;;;;;;;1033810;28;20113;-70
2023/11/29 00:16:05;;;;;;;1.83;1.73;;;;;;;;;;1033990;28;20018;-70
2023/11/29 00:16:35;;;;;;;2.53;2.35;;;;;;;;;;1033746;28;20018;-70
2023/11/29 00:17:06;;;;;;;0.93;0.93;;;;;;;;;;1033845;28;20084;-70
2023/11/29 00:17:36;;;;;;;6.18;3.63;;;;;;;;;;1033771;28;20458;-70
2023/11/29 00:18:06;;;;;;;3.40;1.75;;;;;;;;;;1033015;28;20033;-70
2023/11/29 00:18:37;;;;;;;0.77;0.77;;;;;;;;;;1033652;28;20029;-70
2023/11/29 00:19:08;;;;;;;3.15;2.47;;;;;;;;;;1034123;28;20038;-70
2023/11/29 00:19:41;;;;;;;1.95;1.33;;;;;;;;;;1033728;28;20126;-70
2023/11/29 00:20:11;;;;;;;2.30;1.85;;;;;;;;;;1033211;28;20097;-70
2023/11/29 00:20:42;;;;;;;2.58;2.40;;;;;;;;;;1033698;28;20164;-70
2023/11/29 00:21:12;;;;;;;0.60;0.60;;;;;;;;;;1034038;28;20080;-70
2023/11/29 00:21:43;;;;;;;2.60;2.40;;;;;;;;;;1033661;28;20451;-70
2023/11/29 00:22:14;;;;;;;6.40;2.95;;;;;;;;;;1035071;28;20029;-70
2023/11/29 00:22:44;;;;;;;2.08;1.98;;;;;;;;;;1035355;28;20120;-70
2023/11/29 00:23:14;;;;;;;2.80;2.50;;;;;;;;;;1035797;28;20032;-70
2023/11/29 00:23:45;;;;;;;1.35;1.30;;;;;;;;;;1035373;28;20037;-70
2023/11/29 00:24:15;;;;;;;2.50;2.40;;;;;;;;;;1033830;28;20057;-70
2023/11/29 00:24:48;;;;;;;25.25;3.60;;;;;;;;;;1033736;28;20121;-70
2023/11/29 00:25:19;;;;;;;0.90;0.90;;;;;;;;;;1034884;28;20559;-70
2023/11/29 00:25:49;;;;;;;2.75;2.40;;;;;;;;;;1033897;28;20057;-70
2023/11/29 00:26:23;;;;;;;3.63;2.47;;;;;;;;;;1033843;28;20026;-70
2023/11/29 00:26:54;;;;;;;1.40;1.35;;;;;;;;;;1037426;28;20884;-70
2023/11/29 00:27:24;;;;;;;1.20;1.10;;;;;;;;;;1037582;28;20057;-70
2023/11/29 00:27:55;;;;;;;1.75;1.65;;;;;;;;;;1037573;28;20021;-71
2023/11/29 00:28:25;;;;;;;2.20;2.03;;;;;;;;;;1037444;28;20030;-71
2023/11/29 00:28:56;;;;;;;10.68;2.90;;;;;;;;;;1033630;28;20014;-70
2023/11/29 00:29:27;;;;;;;2.20;1.92;;;;;;;;;;1032499;28;20120;-70
2023/11/29 00:29:57;;;;;;;1.65;1.38;;;;;;;;;;1033641;28;20033;-70
2023/11/29 00:30:29;;;;;;;1.33;1.25;;;;;;;;;;1033835;28;20533;-70
2023/11/29 00:30:59;;;;;;;1.05;1.00;;;;;;;;;;1033784;28;20394;-70
2023/11/29 00:31:30;;;;;;;2.45;1.48;;;;;;;;;;1033745;28;20014;-70
2023/11/29 00:32:00;;;;;;;0.90;0.85;;;;;;;;;;1033804;28;20037;-70
2023/11/29 00:32:31;;;;;;;1.85;1.75;;;;;;;;;;1033757;28;20018;-70
2023/11/29 00:33:01;;;;;;;0.73;0.73;;;;;;;;;;1033504;28;20018;-70
2023/11/29 00:33:31;;;;;;;2.63;1.95;;;;;;;;;;1033537;28;20541;-70
2023/11/29 00:34:02;;;;;;;26.02;2.92;;;;;;;;;;1033347;28;20033;-70
2023/11/29 00:34:32;;;;;;;2.28;2.10;;;;;;;;;;1033538;28;20026;-70
2023/11/29 00:35:03;;;;;;;1.38;1.27;;;;;;;;;;1033520;28;20022;-70
2023/11/29 00:35:33;;;;;;;1.35;1.25;;;;;;;;;;1033448;28;20022;-70
2023/11/29 00:36:04;;;;;;;1.92;1.83;;;;;;;;;;1033873;28;20422;-70
2023/11/29 00:36:34;;;;;;;4.00;3.70;;;;;;;;;;1037427;28;20028;-70
2023/11/29 00:37:05;;;;;;;1.13;1.02;;;;;;;;;;1037366;28;20072;-70
2023/11/29 00:37:35;;;;;;;0.52;0.52;;;;;;;;;;1037746;28;20544;-70
2023/11/29 00:38:06;;;;;;;1.05;1.05;;;;;;;;;;1037617;28;20436;-70
2023/11/29 00:38:36;;;;;;;0.30;0.30;;;;;;;;;;1033311;28;20401;-70
2023/11/29 00:39:07;;;;;;;1.63;1.52;;;;;;;;;;1033885;28;20116;-70
2023/11/29 00:39:37;;;;;;;0.57;0.57;;;;;;;;;;1033561;28;20071;-70
2023/11/29 00:40:08;;;;;;;3.95;1.80;;;;;;;;;;1033945;28;20013;-70
2023/11/29 00:40:38;;;;;;;3.95;3.65;;;;;;;;;;1032453;28;20030;-70
2023/11/29 00:41:09;;;;;;;4.13;3.25;;;;;;;;;;1032938;28;20025;-70
2023/11/29 00:41:39;;;;;;;1.38;1.30;;;;;;;;;;1032590;28;20117;-70
2023/11/29 00:42:09;;;;;;;1.58;1.48;;;;;;;;;;1033640;28;20026;-70
2023/11/29 00:42:41;;;;;;;2.05;1.95;;;;;;;;;;1032793;28;20025;-70
2023/11/29 00:43:12;;;;;;;2.97;2.75;;;;;;;;;;1035360;28;20018;-70
2023/11/29 00:43:42;;;;;;;2.75;2.17;;;;;;;;;;1035322;28;20029;-69
2023/11/29 00:44:13;;;;;;;1.48;1.30;;;;;;;;;;1035582;28;20105;-70
2023/11/29 00:44:43;;;;;;;2.30;1.33;;;;;;;;;;1033265;28;20018;-70
2023/11/29 00:45:14;;;;;;;1.63;1.52;;;;;;;;;;1033062;28;20052;-70
2023/11/29 00:45:44;;;;;;;0.85;0.82;;;;;;;;;;1033217;28;20446;-70
2023/11/29 00:46:15;;;;;;;1.08;1.08;;;;;;;;;;1033739;28;20113;-70
2023/11/29 00:46:45;;;;;;;3.08;1.73;;;;;;;;;;1033304;28;20023;-70
2023/11/29 00:47:16;;;;;;;0.47;0.47;;;;;;;;;;1033745;28;20022;-70
2023/11/29 00:47:46;;;;;;;1.27;1.10;;;;;;;;;;1033685;28;20116;-71
2023/11/29 00:48:17;;;;;;;0.30;0.30;;;;;;;;;;1033782;28;20026;-71
2023/11/29 00:48:47;;;;;;;7.22;3.15;;;;;;;;;;1033588;28;20034;-71
2023/11/29 00:49:18;;;;;;;3.42;1.95;;;;;;;;;;1033393;28;20064;-71
2023/11/29 00:49:48;;;;;;;1.75;1.65;;;;;;;;;;1033505;28;20111;-71
2023/11/29 00:50:19;;;;;;;1.40;1.23;;;;;;;;;;1034924;28;20018;-71
2023/11/29 00:50:49;;;;;;;0.73;0.60;;;;;;;;;;1037143;28;20029;-71
2023/11/29 00:51:20;;;;;;;0.60;0.60;;;;;;;;;;1033331;28;20018;-71
2023/11/29 00:51:50;;;;;;;0.30;0.30;;;;;;;;;;1033075;28;20022;-71
2023/11/29 00:52:20;;;;;;;2.15;2.05;;;;;;;;;;1033580;28;20402;-71
2023/11/29 00:52:51;;;;;;;2.50;2.30;;;;;;;;;;1033629;28;20030;-71
2023/11/29 00:53:21;;;;;;;0.75;0.75;;;;;;;;;;1033658;28;20030;-71
2023/11/29 00:53:52;;;;;;;3.30;3.03;;;;;;;;;;1033763;28;20367;-71
2023/11/29 00:54:22;;;;;;;0.10;0.10;;;;;;;;;;1033753;28;20034;-71
2023/11/29 00:54:53;;;;;;;2.28;0.98;;;;;;;;;;1033616;28;20022;-71
2023/11/29 00:55:23;;;;;;;1.15;1.05;;;;;;;;;;1033797;28;20473;-71
2023/11/29 00:55:53;;;;;;;0.35;0.35;;;;;;;;;;1033563;28;20510;-71
2023/11/29 00:56:24;;;;;;;9.02;1.95;;;;;;;;;;1033615;28;20387;-71
2023/11/29 00:56:54;;;;;;;2.65;2.42;;;;;;;;;;1033630;28;20022;-71
2023/11/29 00:57:25;;;;;;;0.57;0.57;;;;;;;;;;1033625;28;20131;-71
2023/11/29 00:57:55;;;;;;;1.40;1.30;;;;;;;;;;1033715;28;20429;-71
2023/11/29 00:58:26;;;;;;;1.48;1.38;;;;;;;;;;1033722;28;20026;-71
2023/11/29 00:58:56;;;;;;;3.10;2.30;;;;;;;;;;1033472;28;20034;-71
2023/11/29 00:59:26;;;;;;;3.95;2.03;;;;;;;;;;1033716;28;20389;-71
2023/11/29 00:59:57;;;;;;;1.80;1.70;;;;;;;;;;1033704;28;20033;-71
2023/11/29 01:00:28;;;;;;;0.68;0.68;;;;;;;;;;1033336;28;20470;-71
2023/11/29 01:00:59;;;;;;;1.70;1.60;;;;;;;;;;1033472;28;20478;-71
2023/11/29 01:01:29;;;;;;;2.55;2.33;;;;;;;;;;1032980;28;20117;-71
2023/11/29 01:02:00;;;;;;;1.23;1.13;;;;;;;;;;1033794;28;20075;-71
2023/11/29 01:02:30;;;;;;;4.32;2.47;;;;;;;;;;1033614;28;20030;-71
2023/11/29 01:03:00;;;;;;;0.73;0.73;;;;;;;;;;1033654;28;20026;-71
2023/11/29 01:03:31;;;;;;;1.95;1.85;;;;;;;;;;1033701;28;20021;-71
2023/11/29 01:04:02;;;;;;;0.63;0.63;;;;;;;;;;1032806;28;20022;-71
2023/11/29 01:04:33;;;;;;;9.15;1.35;;;;;;;;;;1033466;28;20022;-70
2023/11/29 01:05:03;;;;;;;3.58;1.65;;;;;;;;;;1034331;28;20064;-70
2023/11/29 01:05:34;;;;;;;2.95;1.50;;;;;;;;;;1033629;28;20100;-71
2023/11/29 01:06:04;;;;;;;0.63;0.63;;;;;;;;;;1033748;28;20026;-71
2023/11/29 01:06:36;;;;;;;2.20;2.10;;;;;;;;;;1032687;28;20037;-71
2023/11/29 01:07:07;;;;;;;4.40;1.55;;;;;;;;;;1032123;28;20486;-71
2023/11/29 01:07:37;;;;;;;2.00;1.85;;;;;;;;;;1033763;28;20033;-71
2023/11/29 01:08:08;;;;;;;4.82;2.70;;;;;;;;;;1033777;28;20389;-71
2023/11/29 01:08:38;;;;;;;4.88;2.42;;;;;;;;;;1033341;28;20029;-71
2023/11/29 01:09:10;;;;;;;6.38;5.78;;;;;;;;;;1033404;28;20037;-71
2023/11/29 01:09:40;;;;;;;11.88;3.40;;;;;;;;;;1033570;28;20022;-71
2023/11/29 01:10:11;;;;;;;9.77;2.90;;;;;;;;;;1035046;28;20010;-71
2023/11/29 01:10:42;;;;;;;3.03;2.20;;;;;;;;;;1034742;28;20118;-71
2023/11/29 01:11:12;;;;;;;9.00;3.42;;;;;;;;;;1034615;28;20180;-71
2023/11/29 01:11:43;;;;;;;6.20;2.90;;;;;;;;;;1034877;28;20519;-71
2023/11/29 01:12:14;;;;;;;7.60;4.25;;;;;;;;;;1034210;28;20030;-71
2023/11/29 01:12:44;;;;;;;14.10;6.07;;;;;;;;;;1033225;28;20034;-71
2023/11/29 01:13:15;;;;;;;6.55;3.33;;;;;;;;;;1033785;28;20030;-71
2023/11/29 01:13:46;;;;;;;8.65;6.47;;;;;;;;;;1033246;28;20026;-71
2023/11/29 01:14:16;;;;;;;12.32;4.85;;;;;;;;;;1033462;28;20553;-71
2023/11/29 01:14:47;;;;;;;8.85;4.03;;;;;;;;;;1033446;28;20032;-71
2023/11/29 01:15:18;;;;;;;12.35;6.35;;;;;;;;;;1033284;28;20061;-71
2023/11/29 01:15:48;;;;;;;5.63;4.30;;;;;;;;;;1033446;28;20034;-71
2023/11/29 01:16:19;;;;;;;9.15;4.50;;;;;;;;;;1033534;28;20033;-71
2023/11/29 01:16:49;;;;;;;5.03;2.70;;;;;;;;;;1033599;28;20030;-71
2023/11/29 01:17:20;;;;;;;3.17;1.80;;;;;;;;;;1033528;28;20017;-71
2023/11/29 01:17:50;;;;;;;4.88;3.13;;;;;;;;;;1032275;28;20478;-71
2023/11/29 01:18:21;;;;;;;1.95;1.83;;;;;;;;;;1033512;28;20022;-71
2023/11/29 01:18:51;;;;;;;4.72;2.40;;;;;;;;;;1033161;28;20030;-71
2023/11/29 01:19:23;;;;;;;5.03;4.47;;;;;;;;;;1033279;28;20278;-71
2023/11/29 01:19:54;;;;;;;3.60;2.75;;;;;;;;;;1033213;28;20393;-71
2023/11/29 01:20:24;;;;;;;6.28;3.88;;;;;;;;;;1033696;28;20022;-71
2023/11/29 01:20:55;;;;;;;3.20;2.13;;;;;;;;;;1032538;28;20068;-71
2023/11/29 01:21:27;;;;;;;4.53;4.07;;;;;;;;;;1033522;28;20030;-71
2023/11/29 01:21:59;;;;;;;13.05;2.33;;;;;;;;;;1032078;28;20532;-71
2023/11/29 01:22:29;;;;;;;3.40;3.13;;;;;;;;;;1033682;28;20171;-71
2023/11/29 01:23:00;;;;;;;5.00;3.08;;;;;;;;;;1032924;28;20025;-71
2023/11/29 01:23:30;;;;;;;3.63;2.88;;;;;;;;;;1033719;28;20421;-71
2023/11/29 01:24:01;;;;;;;5.30;3.28;;;;;;;;;;1037090;28;20413;-71
2023/11/29 01:24:31;;;;;;;3.25;2.33;;;;;;;;;;1038371;28;20044;-71
2023/11/29 01:25:01;;;;;;;6.63;5.97;;;;;;;;;;1036833;28;20421;-71
2023/11/29 01:25:32;;;;;;;9.57;5.80;;;;;;;;;;1037449;28;20029;-71
2023/11/29 01:26:03;;;;;;;5.45;4.43;;;;;;;;;;1034146;28;20024;-70
2023/11/29 01:26:33;;;;;;;5.50;4.25;;;;;;;;;;1033595;28;20374;-71
2023/11/29 01:27:04;;;;;;;4.28;2.50;;;;;;;;;;1032903;28;20486;-71
2023/11/29 01:27:34;;;;;;;6.78;3.53;;;;;;;;;;1033644;28;20025;-71
2023/11/29 01:28:07;;;;;;;7.05;4.95;;;;;;;;;;1033028;28;20018;-71
2023/11/29 01:28:38;;;;;;;8.23;4.07;;;;;;;;;;1032885;28;20447;-71
2023/11/29 01:29:08;;;;;;;9.02;4.68;;;;;;;;;;1033052;28;20037;-71
2023/11/29 01:29:39;;;;;;;4.60;4.20;;;;;;;;;;1032201;28;20375;-71
2023/11/29 01:30:09;;;;;;;4.80;2.13;;;;;;;;;;1033227;28;20386;-71
2023/11/29 01:30:40;;;;;;;6.82;4.57;;;;;;;;;;1032530;28;20064;-71
2023/11/29 01:31:12;;;;;;;6.28;3.55;;;;;;;;;;1032420;28;20030;-72
2023/11/29 01:31:43;;;;;;;3.85;3.50;;;;;;;;;;1032909;28;20037;-71
2023/11/29 01:32:13;;;;;;;5.57;2.70;;;;;;;;;;1032800;28;20050;-71
2023/11/29 01:32:44;;;;;;;3.17;2.53;;;;;;;;;;1032193;28;20060;-71
2023/11/29 01:33:14;;;;;;;2.65;1.95;;;;;;;;;;1032667;28;20024;-71
2023/11/29 01:33:44;;;;;;;6.55;3.45;;;;;;;;;;1032765;28;20180;-71
2023/11/29 01:34:15;;;;;;;14.50;3.33;;;;;;;;;;1033347;28;20018;-70
2023/11/29 01:34:45;;;;;;;9.50;2.97;;;;;;;;;;1033466;28;20302;-70
2023/11/29 01:35:16;;;;;;;14.77;6.45;;;;;;;;;;1032679;28;20040;-70
2023/11/29 01:35:46;;;;;;;8.80;3.38;;;;;;;;;;1031525;28;20487;-70
2023/11/29 01:36:17;;;;;;;14.77;5.70;;;;;;;;;;1030996;28;20022;-70
2023/11/29 01:36:47;;;;;;;10.77;6.43;;;;;;;;;;1030838;28;20569;-70
2023/11/29 01:37:18;;;;;;;5.95;5.25;;;;;;;;;;1028668;28;20026;-70
2023/11/29 01:37:48;;;;;;;5.32;4.15;;;;;;;;;;1032557;28;20041;-71
2023/11/29 01:38:19;;;;;;;3.20;2.10;;;;;;;;;;1032023;28;20017;-70
2023/11/29 01:38:50;;;;;;;6.57;2.28;;;;;;;;;;1032355;28;20034;-70
2023/11/29 01:39:21;;;;;;;4.13;2.30;;;;;;;;;;1033330;28;20121;-70
2023/11/29 01:39:51;;;;;;;5.93;1.17;;;;;;;;;;1032726;28;20025;-70
2023/11/29 01:40:22;;;;;;;2.28;1.77;;;;;;;;;;1033227;28;20394;-70
2023/11/29 01:40:52;;;;;;;3.05;1.67;;;;;;;;;;1033489;28;20708;-70
2023/11/29 01:41:24;;;;;;;6.68;3.28;;;;;;;;;;1031830;28;20057;-70
2023/11/29 01:41:54;;;;;;;2.55;2.35;;;;;;;;;;1031448;28;20026;-70
2023/11/29 01:42:25;;;;;;;6.72;4.03;;;;;;;;;;1032826;28;20025;-70
2023/11/29 01:42:55;;;;;;;4.13;3.38;;;;;;;;;;1036155;28;20028;-70
2023/11/29 01:43:26;;;;;;;4.32;3.20;;;;;;;;;;1033024;28;20060;-70
2023/11/29 01:43:56;;;;;;;7.72;4.45;;;;;;;;;;1028262;28;20136;-70
2023/11/29 01:44:27;;;;;;;10.07;5.75;;;;;;;;;;1029040;28;20539;-70
2023/11/29 01:44:59;;;;;;;6.55;3.38;;;;;;;;;;1029125;28;20030;-70
2023/11/29 01:45:29;;;;;;;2.35;2.20;;;;;;;;;;1033573;28;20033;-70
2023/11/29 01:46:00;;;;;;;23.90;2.35;;;;;;;;;;1032779;28;20454;-70
2023/11/29 01:46:30;;;;;;;3.53;3.28;;;;;;;;;;1032081;28;20026;-70
2023/11/29 01:47:04;;;;;;;1.88;1.77;;;;;;;;;;1031685;28;20021;-70
2023/11/29 01:47:37;;;;;;;5.45;1.17;;;;;;;;;;1032518;28;20096;-70
2023/11/29 01:48:07;;;;;;;1.83;1.70;;;;;;;;;;1028913;28;20034;-70
2023/11/29 01:48:38;;;;;;;1.65;1.55;;;;;;;;;;1032402;28;20458;-70
2023/11/29 01:49:09;;;;;;;8.73;2.25;;;;;;;;;;1031307;28;20176;-70
2023/11/29 01:49:40;;;;;;;1.90;1.83;;;;;;;;;;1031710;28;20034;-70
2023/11/29 01:50:11;;;;;;;15.55;4.88;;;;;;;;;;1031476;28;20026;-70
2023/11/29 01:50:45;;;;;;;9.27;1.60;;;;;;;;;;1031525;28;20028;-70
2023/11/29 01:51:16;;;;;;;2.00;1.45;;;;;;;;;;1031466;28;20026;-70
2023/11/29 01:51:49;;;;;;;4.10;3.60;;;;;;;;;;1033166;28;20069;-70
2023/11/29 01:52:20;;;;;;;7.88;4.68;;;;;;;;;;1031367;28;20018;-70
2023/11/29 01:52:52;;;;;;;1.75;1.65;;;;;;;;;;1028309;28;20030;-70
2023/11/29 01:53:23;;;;;;;8.32;4.60;;;;;;;;;;1028414;28;20149;-70
2023/11/29 01:53:54;;;;;;;4.45;2.00;;;;;;;;;;1031949;28;20021;-70
2023/11/29 01:54:25;;;;;;;4.22;2.85;;;;;;;;;;1033897;28;20087;-71
2023/11/29 01:54:56;;;;;;;4.38;4.00;;;;;;;;;;1036517;28;20025;-71
2023/11/29 01:55:27;;;;;;;6.63;2.92;;;;;;;;;;1036299;28;20077;-71
2023/11/29 01:55:58;;;;;;;4.47;3.53;;;;;;;;;;1036167;28;20025;-71
2023/11/29 01:56:28;;;;;;;2.80;2.58;;;;;;;;;;1031591;28;20029;-71
2023/11/29 01:56:59;;;;;;;3.28;1.25;;;;;;;;;;1032490;28;20482;-70
2023/11/29 01:57:29;;;;;;;2.33;2.15;;;;;;;;;;1032594;28;20088;-70
2023/11/29 01:57:59;;;;;;;1.10;1.08;;;;;;;;;;1032380;28;20067;-71
2023/11/29 01:58:30;;;;;;;10.20;3.75;;;;;;;;;;1033252;28;20036;-71
2023/11/29 01:59:00;;;;;;;12.60;2.45;;;;;;;;;;1033442;28;20211;-71
2023/11/29 01:59:31;;;;;;;4.38;2.72;;;;;;;;;;1033929;28;20028;-70
2023/11/29 02:00:03;;;;;;;4.05;3.65;;;;;;;;;;1032102;28;20114;-71
2023/11/29 02:00:33;;;;;;;2.00;1.48;;;;;;;;;;1034012;28;20482;-71
2023/11/29 02:01:04;;;;;;;5.28;1.95;;;;;;;;;;1031656;28;20101;-71
2023/11/29 02:01:34;;;;;;;5.78;3.67;;;;;;;;;;1033880;28;20133;-71
2023/11/29 02:02:05;;;;;;;10.73;3.47;;;;;;;;;;1032474;28;20022;-71
2023/11/29 02:02:35;;;;;;;9.20;5.15;;;;;;;;;;1033450;28;20075;-72
2023/11/29 02:03:06;;;;;;;8.93;3.50;;;;;;;;;;1031967;28;20073;-70
2023/11/29 02:03:36;;;;;;;5.10;3.22;;;;;;;;;;1033253;28;20022;-72
2023/11/29 02:04:07;;;;;;;3.78;2.80;;;;;;;;;;1032149;28;21124;-72
2023/11/29 02:04:38;;;;;;;8.70;3.88;;;;;;;;;;1033157;28;20040;-70
2023/11/29 02:05:08;;;;;;;8.93;2.50;;;;;;;;;;1030945;28;20026;-72
2023/11/29 02:05:39;;;;;;;15.90;2.78;;;;;;;;;;1036912;28;20618;-70
2023/11/29 02:06:10;;;;;;;9.05;4.05;;;;;;;;;;1035264;28;20061;-70
2023/11/29 02:06:41;;;;;;;5.38;4.90;;;;;;;;;;1032921;28;20478;-70
2023/11/29 02:07:12;;;;;;;9.07;2.10;;;;;;;;;;1033618;28;20437;-70
2023/11/29 02:07:42;;;;;;;13.27;3.45;;;;;;;;;;1033109;28;20026;-72
2023/11/29 02:08:13;;;;;;;8.23;4.18;;;;;;;;;;1033007;28;20026;-71
2023/11/29 02:08:44;;;;;;;2.42;2.33;;;;;;;;;;1033600;28;20026;-72
2023/11/29 02:09:14;;;;;;;7.32;3.33;;;;;;;;;;1036181;28;20462;-70
2023/11/29 02:09:45;;;;;;;4.63;3.38;;;;;;;;;;1036453;28;20835;-70
2023/11/29 07:10:10;;;;;;;7.13;1.98;;;;;;;;;;1031769;28;20106;-71
2023/11/29 07:10:41;;;;;;;1.35;1.27;;;;;;;;;;1029688;28;20033;-70
2023/11/29 07:11:11;;;;;;;0.65;0.65;;;;;;;;;;1029272;28;20494;-71
2023/11/29 07:11:42;;;;;;;0.40;0.40;;;;;;;;;;1028491;28;20351;-72
2023/11/29 07:12:12;;;;;;;0.60;0.60;;;;;;;;;;1031180;28;20030;-70
2023/11/29 07:12:43;;;;;;;0.47;0.47;;;;;;;;;;1032653;28;20025;-70
2023/11/29 07:13:15;;;;;;;3.35;2.15;;;;;;;;;;1032907;28;20038;-71
2023/11/29 07:13:46;;;;;;;0.50;0.50;;;;;;;;;;1033634;28;20037;-70
2023/11/29 07:14:17;;;;;;;5.68;1.88;;;;;;;;;;1035755;28;20033;-70
2023/11/29 07:14:47;;;;;;;6.47;2.30;;;;;;;;;;1036580;28;20041;-71
2023/11/29 07:15:18;;;;;;;0.98;0.70;;;;;;;;;;1031756;28;20021;-70
2023/11/29 07:15:50;;;;;;;0.32;0.32;;;;;;;;;;1034638;28;20026;-71
2023/11/29 07:16:21;;;;;;;2.08;1.05;;;;;;;;;;1031238;28;20056;-70
2023/11/29 07:16:51;;;;;;;18.90;1.73;;;;;;;;;;1029298;28;20526;-70
2023/11/29 07:17:22;;;;;;;3.20;2.92;;;;;;;;;;1029101;28;20208;-71
2023/11/29 07:17:53;;;;;;;0.73;0.73;;;;;;;;;;1030768;28;20041;-71
2023/11/29 07:18:25;;;;;;;0.20;0.20;;;;;;;;;;1030083;28;20786;-71
2023/11/29 07:18:56;;;;;;;1.27;0.98;;;;;;;;;;1030944;28;20405;-71
2023/11/29 07:19:27;;;;;;;0.10;0.10;;;;;;;;;;1034362;28;20504;-70
2023/11/29 07:20:00;;;;;;;0.20;0.20;;;;;;;;;;1030330;28;20514;-71
2023/11/29 07:20:30;;;;;;;1.13;0.88;;;;;;;;;;1033581;28;20026;-71
2023/11/29 07:21:01;;;;;;;2.30;2.15;;;;;;;;;;1031969;28;20021;-71
2023/11/29 07:21:31;;;;;;;1.70;1.38;;;;;;;;;;1030321;28;20045;-70
2023/11/29 07:22:02;;;;;;;1.48;1.38;;;;;;;;;;1029199;28;20022;-70
2023/11/29 07:22:34;;;;;;;1.83;1.65;;;;;;;;;;1030808;28;20085;-71
2023/11/29 07:23:05;;;;;;;5.55;0.38;;;;;;;;;;1030043;28;20061;-71
2023/11/29 07:23:36;;;;;;;4.47;1.27;;;;;;;;;;1026858;28;20092;-71
2023/11/29 07:24:06;;;;;;;2.13;1.20;;;;;;;;;;1031885;28;20030;-72
2023/11/29 07:24:37;;;;;;;8.68;2.40;;;;;;;;;;1032868;28;20022;-72
2023/11/29 07:25:08;;;;;;;0.10;0.10;;;;;;;;;;1033243;28;20076;-72
2023/11/29 07:25:39;;;;;;;3.75;2.35;;;;;;;;;;1032611;28;20061;-71
2023/11/29 07:26:09;;;;;;;2.95;1.75;;;;;;;;;;1032664;28;20033;-71
2023/11/29 07:26:41;;;;;;;4.13;1.67;;;;;;;;;;1031068;28;20529;-71
2023/11/29 07:27:12;;;;;;;0.47;0.47;;;;;;;;;;1032442;28;20095;-71
2023/11/29 07:27:43;;;;;;;1.17;0.68;;;;;;;;;;1033426;28;20022;-71
2023/11/29 07:28:17;;;;;;;2.50;2.30;;;;;;;;;;1030061;28;20066;-71
2023/11/29 07:28:49;;;;;;;2.95;2.35;;;;;;;;;;1032901;28;20430;-71
2023/11/29 07:29:19;;;;;;;1.35;0.75;;;;;;;;;;1034146;28;20041;-71
2023/11/29 07:29:50;;;;;;;24.48;1.63;;;;;;;;;;1033954;28;20040;-70
2023/11/29 07:30:20;;;;;;;1.08;1.02;;;;;;;;;;1033497;28;20041;-70
2023/11/29 07:30:51;;;;;;;7.18;2.85;;;;;;;;;;1033238;28;20084;-70
2023/11/29 07:31:23;;;;;;;4.25;2.80;;;;;;;;;;1032760;28;20014;-70
2023/11/29 07:31:54;;;;;;;1.85;1.75;;;;;;;;;;1028818;28;20424;-71
2023/11/29 07:32:24;;;;;;;1.00;1.00;;;;;;;;;;1032879;28;20084;-71
2023/11/29 07:32:55;;;;;;;2.13;1.08;;;;;;;;;;1031626;28;20452;-71
2023/11/29 07:33:25;;;;;;;12.68;1.15;;;;;;;;;;1031110;28;20034;-71
2023/11/29 07:33:59;;;;;;;27.70;3.35;;;;;;;;;;1032013;28;20564;-71
2023/11/29 07:34:30;;;;;;;1.33;1.23;;;;;;;;;;1033903;28;20036;-70
2023/11/29 07:35:00;;;;;;;1.55;1.08;;;;;;;;;;1031958;28;20037;-70
2023/11/29 07:35:31;;;;;;;1.95;1.58;;;;;;;;;;1032710;28;20026;-70
2023/11/29 07:36:06;;;;;;;1.90;0.98;;;;;;;;;;1029359;28;20401;-70
2023/11/29 07:36:37;;;;;;;3.20;2.08;;;;;;;;;;1036532;28;20025;-71
2023/11/29 07:37:07;;;;;;;2.15;1.95;;;;;;;;;;1034028;28;20045;-71
2023/11/29 07:37:38;;;;;;;4.30;2.92;;;;;;;;;;1034164;28;20025;-71
2023/11/29 07:38:10;;;;;;;0.80;0.80;;;;;;;;;;1032196;28;20355;-71
2023/11/29 07:38:42;;;;;;;7.18;2.08;;;;;;;;;;1027908;28;20523;-71
2023/11/29 07:39:13;;;;;;;2.85;2.58;;;;;;;;;;1025672;28;20125;-71
2023/11/29 07:39:44;;;;;;;1.80;0.70;;;;;;;;;;1026820;28;20030;-71
2023/11/29 07:40:14;;;;;;;1.73;1.63;;;;;;;;;;1030955;28;20037;-71
2023/11/29 07:40:45;;;;;;;0.13;0.13;;;;;;;;;;1030781;28;20034;-71
2023/11/29 07:41:17;;;;;;;1.40;1.30;;;;;;;;;;1030817;28;20037;-72
2023/11/29 07:41:48;;;;;;;4.47;1.90;;;;;;;;;;1031640;28;20516;-70
2023/11/29 07:42:19;;;;;;;0.55;0.55;;;;;;;;;;1033950;28;20133;-71
2023/11/29 07:42:50;;;;;;;0.13;0.13;;;;;;;;;;1034216;28;20038;-71
2023/11/29 07:43:22;;;;;;;1.85;1.00;;;;;;;;;;1034128;28;20041;-71
2023/11/29 07:43:53;;;;;;;6.32;4.15;;;;;;;;;;1032292;28;20033;-70
2023/11/29 07:44:23;;;;;;;3.33;2.45;;;;;;;;;;1032821;28;20037;-71
2023/11/29 07:44:54;;;;;;;1.83;1.73;;;;;;;;;;1032550;28;20025;-71
2023/11/29 07:45:24;;;;;;;0.10;0.10;;;;;;;;;;1032665;28;20123;-71
2023/11/29 07:45:55;;;;;;;2.38;1.23;;;;;;;;;;1032547;28;20033;-72
2023/11/29 07:46:25;;;;;;;3.22;2.92;;;;;;;;;;1033473;28;20033;-71
2023/11/29 07:46:56;;;;;;;2.67;1.70;;;;;;;;;;1031617;28;20025;-71
2023/11/29 07:47:27;;;;;;;1.55;1.35;;;;;;;;;;1032978;28;20025;-71
2023/11/29 07:47:57;;;;;;;5.70;2.00;;;;;;;;;;1032198;28;20502;-70
2023/11/29 07:48:27;;;;;;;6.65;1.63;;;;;;;;;;1032408;28;20030;-71
2023/11/29 07:48:58;;;;;;;0.22;0.22;;;;;;;;;;1031946;28;20026;-71
2023/11/29 07:49:28;;;;;;;0.00;0.00;;;;;;;;;;1033270;28;20446;-71
2023/11/29 07:50:00;;;;;;;0.25;0.25;;;;;;;;;;1033213;28;20561;-71
2023/11/29 07:50:30;;;;;;;2.95;2.67;;;;;;;;;;1033619;28;20153;-71
2023/11/29 07:51:01;;;;;;;1.15;1.10;;;;;;;;;;1031367;28;20617;-71
2023/11/29 07:51:32;;;;;;;2.08;0.45;;;;;;;;;;1031887;28;20029;-70
2023/11/29 07:52:07;;;;;;;3.75;1.33;;;;;;;;;;1031237;28;20356;-71
2023/11/29 07:52:37;;;;;;;0.30;0.22;;;;;;;;;;1031541;28;20031;-70
2023/11/29 07:53:08;;;;;;;1.33;1.25;;;;;;;;;;1030930;28;20030;-71
2023/11/29 07:53:39;;;;;;;15.15;1.27;;;;;;;;;;1030589;28;20029;-71
2023/11/29 07:54:09;;;;;;;0.75;0.75;;;;;;;;;;1031328;28;20030;-71
2023/11/29 07:54:40;;;;;;;0.65;0.65;;;;;;;;;;1034582;28;20039;-72
2023/11/29 07:55:11;;;;;;;0.43;0.38;;;;;;;;;;1030520;28;20038;-71
2023/11/29 07:55:42;;;;;;;11.35;2.10;;;;;;;;;;1032255;28;20029;-71
2023/11/29 07:56:13;;;;;;;0.10;0.10;;;;;;;;;;1033216;28;20423;-71
2023/11/29 07:56:43;;;;;;;1.98;1.75;;;;;;;;;;1033687;28;20029;-71
2023/11/29 07:57:15;;;;;;;0.75;0.50;;;;;;;;;;1033185;28;20516;-71
2023/11/29 07:57:47;;;;;;;9.95;1.27;;;;;;;;;;1031257;28;20129;-71
2023/11/29 07:58:17;;;;;;;0.82;0.82;;;;;;;;;;1032968;28;20026;-71
2023/11/29 07:58:48;;;;;;;0.77;0.77;;;;;;;;;;1033262;28;20128;-71
2023/11/29 07:59:19;;;;;;;6.95;1.85;;;;;;;;;;1033097;28;20026;-71
2023/11/29 07:59:50;;;;;;;1.40;0.82;;;;;;;;;;1032092;28;20434;-70
2023/11/29 08:00:21;;;;;;;16.05;1.25;;;;;;;;;;1033171;28;20747;-70
2023/11/29 08:00:51;;;;;;;0.30;0.30;;;;;;;;;;1029415;28;20101;-71
2023/11/29 08:01:21;;;;;;;0.75;0.75;;;;;;;;;;1029470;28;20026;-71
2023/11/29 08:01:52;;;;;;;0.55;0.55;;;;;;;;;;1032060;28;20484;-72
2023/11/29 08:02:22;;;;;;;0.60;0.60;;;;;;;;;;1033279;28;20501;-72
2023/11/29 08:02:53;;;;;;;0.45;0.45;;;;;;;;;;1034253;28;20022;-72
2023/11/29 08:03:24;;;;;;;1.25;1.17;;;;;;;;;;1033625;28;20097;-71
2023/11/29 08:03:54;;;;;;;2.88;0.85;;;;;;;;;;1034364;28;20032;-72
2023/11/29 08:04:25;;;;;;;1.33;1.17;;;;;;;;;;1034539;28;20025;-72